Relevés horaires Mottec (Suisse)


Relevés horaires à Mottec - Mardi 03 Juill. 2018
Heure UTC1 Température [°C] Vent [km/h] Hum. [%] Pres.4 [hPa] Visi. [Km] Nébu. [octa] Préc.5 [mm] Cond.
2m. Res. Ros. Dir.2 Vit. Moy. Raf.3
23:00 10.1 8.9 9.7 SSE 9.3 -- -- 97 850 -- -- -- --
22:00 10.1 8.9 9.9 S 9.3 -- -- 99 850 -- -- -- --
21:00 9.1 9.1 9.0 S 3.7 -- 35.2 99 850(2.2/3h) -- -- -- --
20:00 11.0 10.3 10.7 SSE 7.4 -- -- 98 850 -- -- -- --
19:00 12.2 11.4 11.7 S 9.3 -- -- 97 850 -- -- -- --
18:00 16.4 16.4 11.8 SSO 3.7 -- 13.0 74 850(-0.3/3h) -- -- 0.1/12h
--
17:00 18.9 18.9 12.1 S 3.7 -- -- 65 850 -- -- -- --
16:00 18.9 18.9 13.2 S 3.7 -- -- 69 850 -- -- -- --
15:00 20.5 20.5 9.2 SSO 5.6 -- 13.0 48 850(-0.4/3h) -- -- -- --
14:00 20.5 20.5 10.1 SSO 3.7 -- -- 51 850 -- -- -- --
13:00 19.7 19.7 8.3 N 5.6 -- -- 48 850 -- -- -- --
12:00 19.6 19.6 7.7 NNO 5.6 -- 24.1 46 850(-0.6/3h) -- -- 0/6h
--
11:00 17.7 17.7 10.2 N 5.6 -- -- 61 850 -- -- -- --
10:00 17.9 17.9 9.2 NNO 11.1 -- -- 57 850 -- -- -- --
09:00 15.5 15.5 10.4 SSO 7.4 -- 24.1 72 850 -- -- -- --
08:00 14.8 14 9.8 N 13.0 -- -- 72 850 -- -- -- --
07:00 13.9 13.9 10.0 S 5.6 -- -- 77 850 -- -- -- --
06:00 10.6 10.6 9.7 OSO 1.9 -- 18.5 94 850 -- -- 3/12h
5.4/24h
--
05:00 9.3 9.3 7.8 ESE 1.9 -- -- 90 850 -- -- -- --
04:00 10.7 9.6 8.6 SSE 9.3 -- -- 87 850 -- -- -- --
03:00 11.1 10.4 8.3 S 7.4 -- 18.5 83 850 -- -- -- --
02:00 11.7 10.8 8.7 SSE 9.3 -- -- 82 850 -- -- -- --
01:00 11.1 9.5 9.1 S 13.0 -- -- 87 850 -- -- -- --
00:00 11.0 10.3 8.9 SE 7.4 -- 31.5 87 850 -- -- 3/6h
--

1 Coordinated Universal Time. Actuellement il est 18:00 locale et 16:00 UTC.

2 Le vent souffle depuis la direction indiquée vers la direction oposée.

3 Les rafales max. sont disponible 40 min après l'heure du relevé.

4 Pour les stations d'altitude (plus de 600m) le géopotentiel du niveau le plus proche de la pression obligatoire est indiqué.

5 Les stations disposant d'un diffuseur peuvent indiquer "trace". Cela signifie que des précipitations ont touchés le sol mais que la quantité est inférieure à 0.1 mm.

Récapitulatif de la journée
Température [°C] Vent [km/h] Ensoleillement4 [h] Precipitations totale5 [mm] Pression [Hpa]
Min1 Max.2 Moy.3 Max. Min Max.
8.7 21.1 0 35.2 1 h 24 min 4.6 850.0 850.0

1 Température minimale relevée entre 18:00 UTC la veille et 18:00 UTC le jour donné.

2 Température maximale relevée entre 06:00 UTC le jour donné et 06:00 UTC le lendemain.

3 Vent moyen de la journée basé sur les relevés horaires.

4 Ensoleillement en heures relevé entre 06:00 UTC la veille et 06:00 UTC le jour donné.

5 Précipitations totales tombées entre 06:00 UTC la jour donné et 06:00 UTC le lendemain.

Graphiques horaires